EmailTwitter


Surface observations / United Kingdom / EGLL (03772)

Regions: Quebec | Canada | USA | Europe | France | UK | Elsewhere
Station
Display
Info & Location for EGLL (03772) | Help decoding METAR

Weather Conditions observed on 2020/09/26 at 01:50 UTC at LONDON/HEATHROW, UK (EGLL)

Obstruction(s) to Vision: light rain.

Temperature: 8.0 Celsius.

Dewpoint: 5.0 Celsius.

Relative Humidity: 81%

Windchill Factor: 5.

Winds: Northwest at 15 km/h or 8 knots.

Mean Sea level Pressure: 101.00 kilopascals.

Horizontal visibility: 6.21 statute miles or 9.94 kilometers.

Coded METAR:

EGLL 260150Z AUTO 30008KT 9999 -RA NCD 08/05 Q1010 NOSIG=